createdAt,value
2022-12-05T00:02:01.377Z,102859.78
2022-12-05T00:04:29.782Z,102853.13
2022-12-05T00:06:58.051Z,102854.75
2022-12-05T00:09:26.264Z,102835.91
2022-12-05T00:11:54.541Z,102835.91
2022-12-05T00:14:22.676Z,102839.16
2022-12-05T00:16:52.389Z,102833.94
2022-12-05T00:19:20.645Z,102843.44
2022-12-05T00:21:48.670Z,102844.53
2022-12-05T00:24:18.098Z,102845.25
2022-12-05T00:26:46.223Z,102840.97
2022-12-05T00:29:14.641Z,102849.53
2022-12-05T00:31:43.161Z,102846.16
2022-12-05T00:34:13.005Z,102842.38
2022-12-05T00:36:41.864Z,102837.72
2022-12-05T00:39:12.882Z,102823.31
2022-12-05T00:41:41.322Z,102825.13
2022-12-05T00:44:10.031Z,102802.56
2022-12-05T00:46:41.604Z,102822.31
2022-12-05T00:49:09.820Z,102812.84
2022-12-05T00:51:41.357Z,102817.31
2022-12-05T00:54:12.269Z,102813.72
2022-12-05T00:56:40.957Z,102817.47
2022-12-05T00:59:09.815Z,102823.22
2022-12-05T01:01:40.548Z,102820.72
2022-12-05T01:04:11.761Z,102811.41
2022-12-05T01:06:41.799Z,102813.91
2022-12-05T01:09:13.549Z,102808.50
2022-12-05T01:11:42.514Z,102810.50
2022-12-05T01:14:11.137Z,102801.88
2022-12-05T01:16:41.367Z,102805.66
2022-12-05T01:19:12.735Z,102803.50
2022-12-05T01:21:42.406Z,102797.78
2022-12-05T01:24:11.690Z,102792.78
2022-12-05T01:26:41.218Z,102809.09
2022-12-05T01:29:09.875Z,102777.31
2022-12-05T01:31:39.001Z,102791.88
2022-12-05T01:34:10.247Z,102799.75
2022-12-05T01:36:39.539Z,102794.81
2022-12-05T01:39:10.288Z,102806.69
2022-12-05T01:41:44.537Z,102799.91
2022-12-05T01:44:45.707Z,102801.53
2022-12-05T01:47:18.214Z,102796.34
2022-12-05T01:49:47.266Z,102789.91
2022-12-05T01:52:19.636Z,102792.59
2022-12-05T01:54:51.997Z,102794.53
2022-12-05T01:57:20.484Z,102794.19
2022-12-05T01:59:53.313Z,102791.84
2022-12-05T02:02:22.033Z,102785.03
2022-12-05T02:04:59.365Z,102783.94
2022-12-05T02:07:28.017Z,102772.31
2022-12-05T02:09:57.634Z,102782.72
2022-12-05T02:12:26.868Z,102777.50
2022-12-05T02:15:07.226Z,102779.31
2022-12-05T02:17:45.143Z,102786.13
2022-12-05T02:20:24.932Z,102794.34
2022-12-05T02:23:26.620Z,102791.66
2022-12-05T02:26:20.391Z,102781.78
2022-12-05T02:29:19.215Z,102787.38
2022-12-05T02:31:55.181Z,102778.59
2022-12-05T02:34:30.635Z,102777.41
2022-12-05T02:37:04.831Z,102771.97
2022-12-05T02:39:42.616Z,102774.72
2022-12-05T02:42:17.162Z,102778.16
2022-12-05T02:44:48.909Z,102783.53
2022-12-05T02:47:22.875Z,102774.84
2022-12-05T02:49:53.931Z,102779.31
2022-12-05T02:52:24.293Z,102774.91
2022-12-05T02:54:55.074Z,102777.50
2022-12-05T02:57:24.821Z,102765.69
2022-12-05T02:59:53.196Z,102775.75
2022-12-05T03:02:27.679Z,102769.44
2022-12-05T03:04:59.356Z,102764.97
2022-12-05T03:07:30.116Z,102759.97
2022-12-05T03:10:01.724Z,102763.53
2022-12-05T03:12:35.668Z,102751.34
2022-12-05T03:15:09.791Z,102763.34
2022-12-05T03:17:45.850Z,102752.63
2022-12-05T03:20:19.406Z,102746.34
2022-12-05T03:22:52.715Z,102748.47
2022-12-05T03:25:24.995Z,102738.81
2022-12-05T03:28:01.068Z,102748.31
2022-12-05T03:30:29.709Z,102744.38
2022-12-05T03:33:04.076Z,102732.34
2022-12-05T03:35:38.476Z,102736.31
2022-12-05T03:38:11.741Z,102734.31
2022-12-05T03:40:46.657Z,102734.50
2022-12-05T03:43:20.148Z,102732.16
2022-12-05T03:45:54.458Z,102733.78
2022-12-05T03:48:32.264Z,102738.00
2022-12-05T03:51:03.377Z,102730.56
2022-12-05T03:53:38.469Z,102725.00
2022-12-05T03:56:11.103Z,102729.50
2022-12-05T03:58:44.558Z,102728.97
2022-12-05T04:01:15.299Z,102728.97
2022-12-05T04:03:51.932Z,102726.78
2022-12-05T04:06:28.047Z,102736.47
2022-12-05T04:09:01.172Z,102726.91
2022-12-05T04:11:34.616Z,102726.97
2022-12-05T04:14:09.938Z,102728.59
2022-12-05T04:17:00.179Z,102731.66
2022-12-05T04:19:53.634Z,102713.19
2022-12-05T04:22:22.790Z,102713.25
2022-12-05T04:25:09.973Z,102714.59
2022-12-05T04:27:44.067Z,102705.84
2022-12-05T04:30:16.196Z,102694.16
2022-12-05T04:32:47.835Z,102692.47
2022-12-05T04:35:21.796Z,102688.38
2022-12-05T04:37:54.033Z,102686.47
2022-12-05T04:40:28.159Z,102681.28
2022-12-05T04:42:58.655Z,102675.53
2022-12-05T04:45:27.655Z,102681.63
2022-12-05T04:48:00.125Z,102697.41
2022-12-05T04:50:32.921Z,102686.81
2022-12-05T04:53:02.486Z,102679.28
2022-12-05T04:55:33.785Z,102686.28
2022-12-05T04:58:09.047Z,102682.59
2022-12-05T05:00:46.508Z,102684.50
2022-12-05T05:03:20.515Z,102689.25
2022-12-05T05:05:52.840Z,102691.03
2022-12-05T05:08:25.887Z,102685.41
2022-12-05T05:11:08.304Z,102683.06
2022-12-05T05:13:36.977Z,102683.25
2022-12-05T05:16:05.857Z,102672.66
2022-12-05T05:18:34.149Z,102679.16
2022-12-05T05:21:03.644Z,102696.44
2022-12-05T05:23:32.073Z,102691.31
2022-12-05T05:26:00.141Z,102694.00
2022-12-05T05:28:28.474Z,102692.22
2022-12-05T05:30:56.754Z,102695.00
2022-12-05T05:33:24.855Z,102694.16
2022-12-05T05:35:53.139Z,102691.69
2022-12-05T05:38:22.828Z,102682.78
2022-12-05T05:40:50.986Z,102683.44
2022-12-05T05:43:19.221Z,102689.63
2022-12-05T05:45:47.275Z,102688.25
2022-12-05T05:48:15.378Z,102681.28
2022-12-05T05:50:43.588Z,102679.28
2022-12-05T05:53:11.837Z,102670.72
2022-12-05T05:55:42.313Z,102678.78
2022-12-05T05:58:11.040Z,102674.28
2022-12-05T06:00:39.198Z,102685.91
2022-12-05T06:03:07.450Z,102678.06
2022-12-05T06:05:35.754Z,102683.44
2022-12-05T06:08:05.665Z,102683.06
2022-12-05T06:10:34.119Z,102679.28
2022-12-05T06:13:03.857Z,102666.94
2022-12-05T06:15:32.117Z,102674.53
2022-12-05T06:18:00.322Z,102665.59
2022-12-05T06:20:28.554Z,102667.00
2022-12-05T06:22:56.947Z,102673.56
2022-12-05T06:25:24.981Z,102673.56
2022-12-05T06:27:53.298Z,102678.25
2022-12-05T06:30:22.971Z,102675.63
2022-12-05T06:32:51.077Z,102677.59
2022-12-05T06:35:19.115Z,102678.50
2022-12-05T06:37:47.293Z,102659.97
2022-12-05T06:40:16.996Z,102670.16
2022-12-05T06:42:45.339Z,102679.66
2022-12-05T06:45:13.791Z,102668.91
2022-12-05T06:47:43.246Z,102674.66
2022-12-05T06:50:12.347Z,102669.28
2022-12-05T06:52:40.969Z,102677.25
2022-12-05T06:55:09.774Z,102679.84
2022-12-05T06:57:38.241Z,102671.03
2022-12-05T07:00:25.113Z,102682.72
2022-12-05T07:02:54.952Z,102661.75
2022-12-05T07:05:23.321Z,102677.72
2022-12-05T07:07:51.648Z,102692.41
2022-12-05T07:10:20.199Z,102688.97
2022-12-05T07:12:48.351Z,102684.78
2022-12-05T07:15:16.520Z,102687.19
2022-12-05T07:17:44.752Z,102674.53
2022-12-05T07:20:17.935Z,102684.34
2022-12-05T07:22:46.361Z,102671.94
2022-12-05T07:25:14.510Z,102685.22
2022-12-05T07:27:42.686Z,102680.72
2022-12-05T07:30:11.530Z,102686.38
2022-12-05T07:32:39.642Z,102685.75
2022-12-05T07:35:08.553Z,102684.41
2022-12-05T07:37:38.412Z,102691.03
2022-12-05T07:40:08.074Z,102677.31
2022-12-05T07:42:36.105Z,102686.56
2022-12-05T07:45:04.413Z,102679.75
2022-12-05T07:47:32.570Z,102685.31
2022-12-05T07:50:01.056Z,102680.03
2022-12-05T07:52:30.048Z,102681.47
2022-12-05T07:54:59.518Z,102682.31
2022-12-05T07:57:27.571Z,102680.03
2022-12-05T07:59:56.322Z,102680.09
2022-12-05T08:02:24.643Z,102674.41
2022-12-05T08:04:52.780Z,102670.16
2022-12-05T08:07:21.118Z,102666.59
2022-12-05T08:09:49.359Z,102668.91
2022-12-05T08:12:18.766Z,102678.56
2022-12-05T08:14:47.380Z,102664.25
2022-12-05T08:17:15.575Z,102655.84
2022-12-05T08:19:43.787Z,102655.38
2022-12-05T08:22:12.085Z,102652.97
2022-12-05T08:24:41.005Z,102651.00
2022-12-05T08:27:09.109Z,102651.16
2022-12-05T08:29:38.876Z,102655.75
2022-12-05T08:32:07.215Z,102645.81
2022-12-05T08:34:35.389Z,102643.81
2022-12-05T08:37:03.665Z,102641.22
2022-12-05T08:39:36.804Z,102641.84
2022-12-05T08:42:07.153Z,102640.94
2022-12-05T08:44:37.619Z,102637.00
2022-12-05T08:47:07.293Z,102638.34
2022-12-05T08:49:35.568Z,102629.19
2022-12-05T08:52:03.611Z,102631.81
2022-12-05T08:54:31.774Z,102624.63
2022-12-05T08:56:59.959Z,102625.53
2022-12-05T08:59:28.157Z,102628.19
2022-12-05T09:01:56.345Z,102600.28
2022-12-05T09:04:26.248Z,102627.16
2022-12-05T09:06:54.267Z,102625.72
2022-12-05T09:09:22.562Z,102627.34
2022-12-05T09:11:51.267Z,102623.66
2022-12-05T09:14:19.472Z,102631.53
2022-12-05T09:16:48.762Z,102630.53
2022-12-05T09:19:20.287Z,102634.31
2022-12-05T09:21:50.013Z,102610.41
2022-12-05T09:24:18.231Z,102623.00
2022-12-05T09:26:46.982Z,102626.41
2022-12-05T09:29:17.563Z,102621.19
2022-12-05T09:31:47.647Z,102614.38
2022-12-05T09:34:18.213Z,102603.63
2022-12-05T09:36:49.932Z,102615.81
2022-12-05T09:39:20.479Z,102613.69
2022-12-05T09:42:21.260Z,102606.69
2022-12-05T09:45:07.523Z,102620.66
2022-12-05T09:47:44.678Z,102603.81
2022-12-05T09:50:21.257Z,102603.81
2022-12-05T09:53:03.839Z,102612.56
2022-12-05T09:55:41.041Z,102607.66
2022-12-05T09:58:29.326Z,102599.72
2022-12-05T10:01:03.478Z,102596.47
2022-12-05T10:03:39.818Z,102587.69
2022-12-05T10:06:15.159Z,102594.84
2022-12-05T10:08:57.864Z,102588.19
2022-12-05T10:11:34.079Z,102595.03
2022-12-05T10:14:10.356Z,102587.69
2022-12-05T10:16:43.470Z,102577.63
2022-12-05T10:19:16.507Z,102575.38
2022-12-05T10:21:53.352Z,102574.41
2022-12-05T10:24:31.059Z,102570.84
2022-12-05T10:27:03.805Z,102572.06
2022-12-05T10:29:36.950Z,102564.19
2022-12-05T10:32:12.134Z,102561.72
2022-12-05T10:34:42.612Z,102569.69
2022-12-05T10:37:14.924Z,102560.94
2022-12-05T10:39:43.040Z,102557.22
2022-12-05T10:42:16.530Z,102551.44
2022-12-05T10:44:45.102Z,102552.16
2022-12-05T10:47:13.985Z,102540.97
2022-12-05T10:49:42.406Z,102543.09
2022-12-05T10:52:12.446Z,102534.88
2022-12-05T10:54:47.446Z,102548.41
2022-12-05T10:57:30.124Z,102537.06
2022-12-05T10:59:59.038Z,102537.22
2022-12-05T11:02:29.505Z,102521.78
2022-12-05T11:04:59.826Z,102527.13
2022-12-05T11:07:32.452Z,102528.94
2022-12-05T11:10:02.494Z,102522.09
2022-12-05T11:12:39.341Z,102518.34
2022-12-05T11:15:22.653Z,102505.38
2022-12-05T11:17:52.418Z,102510.88
2022-12-05T11:20:41.630Z,102504.88
2022-12-05T11:23:30.072Z,102506.50
2022-12-05T11:26:00.253Z,102496.59
2022-12-05T11:28:38.005Z,102500.06
2022-12-05T11:31:27.512Z,102496.75
2022-12-05T11:34:16.105Z,102503.84
2022-12-05T11:36:51.106Z,102497.97
2022-12-05T11:39:19.192Z,102486.19
2022-12-05T11:42:01.722Z,102475.63
2022-12-05T11:45:03.386Z,102482.94
2022-12-05T11:47:58.603Z,102482.03
2022-12-05T11:50:40.374Z,102477.41
2022-12-05T11:53:26.462Z,102479.53
2022-12-05T11:55:59.210Z,102463.25
2022-12-05T11:58:47.373Z,102469.59
2022-12-05T12:01:23.960Z,102468.78
2022-12-05T12:04:05.847Z,102462.38
2022-12-05T12:06:42.548Z,102435.09
2022-12-05T12:09:24.243Z,102463.59
2022-12-05T12:12:00.185Z,102463.75
2022-12-05T12:14:37.654Z,102462.47
2022-12-05T12:17:17.660Z,102461.22
2022-12-05T12:20:03.873Z,102451.56
2022-12-05T12:22:52.200Z,102464.25
2022-12-05T12:25:33.539Z,102436.59
2022-12-05T12:28:13.791Z,102447.66
2022-12-05T12:30:54.894Z,102439.06
2022-12-05T12:33:31.482Z,102447.50
2022-12-05T12:36:08.778Z,102442.31
2022-12-05T12:39:05.402Z,102440.50
2022-12-05T12:42:03.837Z,102440.84
2022-12-05T12:45:07.365Z,102427.00
2022-12-05T12:47:48.136Z,102425.06
2022-12-05T12:50:23.097Z,102426.28
2022-12-05T12:53:11.966Z,102419.59
2022-12-05T12:55:45.171Z,102430.44
2022-12-05T12:58:26.648Z,102417.28
2022-12-05T13:01:03.897Z,102407.28
2022-12-05T13:03:38.926Z,102408.78
2022-12-05T13:06:14.969Z,102406.72
2022-12-05T13:08:50.598Z,102390.00
2022-12-05T13:11:21.480Z,102394.69
2022-12-05T13:13:53.411Z,102385.44
2022-12-05T13:16:26.690Z,102388.28
2022-12-05T13:18:57.579Z,102384.03
2022-12-05T13:21:28.742Z,102386.97
2022-12-05T13:24:03.720Z,102381.44
2022-12-05T13:26:34.387Z,102381.31
2022-12-05T13:29:05.509Z,102370.38
2022-12-05T13:31:41.822Z,102362.72
2022-12-05T13:34:46.684Z,102346.03
2022-12-05T13:37:40.709Z,102358.69
2022-12-05T13:40:41.217Z,102350.44
2022-12-05T13:43:10.609Z,102362.13
2022-12-05T13:45:39.425Z,102360.38
2022-12-05T13:48:22.124Z,102355.09
2022-12-05T13:50:56.597Z,102354.97
2022-12-05T13:53:34.492Z,102353.84
2022-12-05T13:56:06.051Z,102342.31
2022-12-05T13:58:45.013Z,102343.38
2022-12-05T14:01:46.624Z,102350.78
2022-12-05T14:04:51.770Z,102333.22
2022-12-05T14:07:43.894Z,102346.22
2022-12-05T14:10:16.912Z,102329.66
2022-12-05T14:12:54.108Z,102342.75
2022-12-05T14:15:34.189Z,102334.84
2022-12-05T14:18:12.280Z,102337.81
2022-12-05T14:20:57.159Z,102329.19
2022-12-05T14:23:54.603Z,102326.41
2022-12-05T14:26:41.739Z,102333.38
2022-12-05T14:29:33.154Z,102326.41
2022-12-05T14:32:12.070Z,102324.09
2022-12-05T14:34:54.014Z,102320.22
2022-12-05T14:37:28.403Z,102324.94
2022-12-05T14:39:59.524Z,102328.50
2022-12-05T14:42:37.481Z,102305.44
2022-12-05T14:45:25.701Z,102303.81
2022-12-05T14:47:57.217Z,102312.00
2022-12-05T14:50:39.731Z,102295.09
2022-12-05T14:53:40.073Z,102302.50
2022-12-05T14:56:21.745Z,102305.28
2022-12-05T14:59:00.346Z,102302.75
2022-12-05T15:01:31.427Z,102292.28
2022-12-05T15:04:18.650Z,102289.06
2022-12-05T15:06:51.456Z,102303.34
2022-12-05T15:09:49.087Z,102283.56
2022-12-05T15:12:21.541Z,102280.16
2022-12-05T15:14:58.732Z,102289.41
2022-12-05T15:17:37.788Z,102278.09
2022-12-05T15:20:15.962Z,102279.78
2022-12-05T15:22:44.370Z,102276.41
2022-12-05T15:25:27.267Z,102279.00
2022-12-05T15:28:02.406Z,102273.53
2022-12-05T15:30:33.810Z,102272.28
2022-12-05T15:33:03.256Z,102267.94
2022-12-05T15:35:35.686Z,102257.72
2022-12-05T15:38:13.926Z,102264.56
2022-12-05T15:40:47.826Z,102267.09
2022-12-05T15:43:31.896Z,102264.22
2022-12-05T15:46:20.319Z,102259.03
2022-12-05T15:48:48.886Z,102244.06
2022-12-05T15:51:17.276Z,102251.94
2022-12-05T15:53:53.371Z,102238.88
2022-12-05T15:56:24.976Z,102234.25
2022-12-05T15:58:58.764Z,102225.78
2022-12-05T16:01:29.070Z,102226.34
2022-12-05T16:04:01.003Z,102234.41
2022-12-05T16:06:33.586Z,102235.72
2022-12-05T16:09:11.719Z,102227.19
2022-12-05T16:11:40.694Z,102236.31
2022-12-05T16:14:09.629Z,102213.88
2022-12-05T16:16:42.014Z,102222.78
2022-12-05T16:19:16.813Z,102205.13
2022-12-05T16:21:47.691Z,102193.41
2022-12-05T16:24:21.664Z,102208.53
2022-12-05T16:26:58.352Z,102211.00
2022-12-05T16:29:28.623Z,102206.03
2022-12-05T16:32:00.589Z,102194.72
2022-12-05T16:34:30.264Z,102202.31
2022-12-05T16:36:58.777Z,102210.91
2022-12-05T16:39:28.460Z,102207.56
2022-12-05T16:41:57.634Z,102209.59
2022-12-05T16:45:04.992Z,102213.63
2022-12-05T16:48:00.262Z,102220.19
2022-12-05T16:50:33.026Z,102211.22
2022-12-05T16:53:14.280Z,102216.28
2022-12-05T16:55:45.085Z,102214.63
2022-12-05T16:58:18.936Z,102218.19
2022-12-05T17:00:47.339Z,102198.88
2022-12-05T17:06:06.032Z,102200.53
2022-12-05T17:08:34.502Z,102205.56
2022-12-05T17:11:03.858Z,102214.63
2022-12-05T17:13:32.751Z,102220.41
2022-12-05T17:16:00.988Z,102210.75
2022-12-05T17:18:32.115Z,102205.28
2022-12-05T17:21:02.551Z,102213.28
2022-12-05T17:23:30.849Z,102207.50
2022-12-05T17:26:00.225Z,102190.31
2022-12-05T17:28:28.434Z,102207.19
2022-12-05T17:30:56.659Z,102197.13
2022-12-05T17:33:24.877Z,102193.69
2022-12-05T17:35:54.495Z,102195.63
2022-12-05T17:38:23.912Z,102190.88
2022-12-05T17:40:54.953Z,102185.50
2022-12-05T17:43:25.469Z,102195.91
2022-12-05T17:45:57.592Z,102182.09
2022-12-05T17:48:26.684Z,102176.75
2022-12-05T17:50:58.952Z,102171.41
2022-12-05T17:53:29.502Z,102180.19
2022-12-05T17:55:57.696Z,102184.19
2022-12-05T17:58:25.895Z,102181.06
2022-12-05T18:00:54.268Z,102167.25
2022-12-05T18:03:22.442Z,102167.25
2022-12-05T18:05:50.669Z,102179.72
2022-12-05T18:08:20.581Z,102179.56
2022-12-05T18:10:50.476Z,102179.56
2022-12-05T18:13:19.499Z,102153.03
2022-12-05T18:15:48.849Z,102181.50
2022-12-05T18:18:19.073Z,102165.22
2022-12-05T18:20:47.291Z,102167.06
2022-12-05T18:23:15.768Z,102155.63
2022-12-05T18:25:47.177Z,102157.69
2022-12-05T18:28:17.918Z,102147.16
2022-12-05T18:30:48.032Z,102145.34
2022-12-05T18:33:17.440Z,102161.28
2022-12-05T18:35:45.613Z,102154.28
2022-12-05T18:38:14.081Z,102153.53
2022-12-05T18:40:42.238Z,102131.81
2022-12-05T18:43:12.014Z,102140.47
2022-12-05T18:45:40.319Z,102142.38
2022-12-05T18:48:31.439Z,102137.72
2022-12-05T18:50:56.898Z,102133.47
2022-12-05T18:53:25.065Z,102138.50
2022-12-05T18:56:20.855Z,102114.69
2022-12-05T18:58:44.603Z,102124.69
2022-12-05T19:01:15.995Z,102111.94
2022-12-05T19:03:44.266Z,102116.69
2022-12-05T19:06:14.124Z,102113.72
2022-12-05T19:08:42.914Z,102105.09
2022-12-05T19:11:11.986Z,102104.06
2022-12-05T19:13:40.392Z,102104.22
2022-12-05T19:16:14.190Z,102109.88
2022-12-05T19:18:42.686Z,102094.56
2022-12-05T19:21:10.760Z,102090.97
2022-12-05T19:23:38.968Z,102090.88
2022-12-05T19:26:10.981Z,102092.63
2022-12-05T19:28:39.478Z,102092.63
2022-12-05T19:31:11.088Z,102091.13
2022-12-05T19:33:41.853Z,102076.88
2022-12-05T19:36:12.232Z,102090.97
2022-12-05T19:38:41.444Z,102099.97
2022-12-05T19:41:13.686Z,102084.75
2022-12-05T19:43:42.959Z,102083.56
2022-12-05T19:46:16.238Z,102087.75
2022-12-05T19:48:44.844Z,102080.53
2022-12-05T19:51:13.329Z,102080.00
2022-12-05T19:53:44.042Z,102085.22
2022-12-05T19:56:18.327Z,102076.78
2022-12-05T19:58:47.546Z,102073.31
2022-12-05T20:01:19.041Z,102079.47
2022-12-05T20:03:50.368Z,102064.69
2022-12-05T20:06:19.821Z,102070.91
2022-12-05T20:08:48.485Z,102077.00
2022-12-05T20:11:18.837Z,102066.63
2022-12-05T20:13:47.893Z,102063.06
2022-12-05T20:16:26.982Z,102066.47
2022-12-05T20:18:58.268Z,102069.91
2022-12-05T20:21:28.192Z,102075.16
2022-12-05T20:23:56.269Z,102069.97
2022-12-05T20:26:26.565Z,102062.09
2022-12-05T20:28:56.538Z,102076.59
2022-12-05T20:31:28.112Z,102052.84
2022-12-05T20:33:57.237Z,102069.22
2022-12-05T20:36:26.684Z,102063.06
2022-12-05T20:38:59.533Z,102061.66
2022-12-05T20:41:28.490Z,102053.84
2022-12-05T20:43:59.371Z,102055.66
2022-12-05T20:46:30.166Z,102051.13
2022-12-05T20:48:58.915Z,102043.59
2022-12-05T20:51:29.880Z,102011.44
2022-12-05T20:53:59.491Z,102028.53
2022-12-05T20:56:29.411Z,102027.44
2022-12-05T20:59:00.546Z,102034.69
2022-12-05T21:01:31.802Z,102020.91
2022-12-05T21:04:00.504Z,102026.09
2022-12-05T21:06:31.405Z,102033.06
2022-12-05T21:09:01.053Z,102030.03
2022-12-05T21:11:31.404Z,102019.09
2022-12-05T21:14:02.079Z,102029.66
2022-12-05T21:16:31.893Z,102028.28
2022-12-05T21:19:01.097Z,102018.38
2022-12-05T21:21:32.257Z,102009.38
2022-12-05T21:24:02.245Z,102017.00
2022-12-05T21:26:32.707Z,102006.88
2022-12-05T21:29:02.157Z,102014.84
2022-12-05T21:31:33.203Z,101997.19
2022-12-05T21:34:03.902Z,102001.78
2022-12-05T21:36:34.222Z,101984.59
2022-12-05T21:39:02.435Z,101992.53
2022-12-05T21:41:30.839Z,101982.09
2022-12-05T21:43:58.842Z,101973.25
2022-12-05T21:46:27.404Z,101985.44
2022-12-05T21:48:57.206Z,101981.19
2022-12-05T21:51:25.592Z,101993.88
2022-12-05T21:53:53.653Z,101978.59
2022-12-05T21:56:24.109Z,101981.88
2022-12-05T21:58:53.175Z,101966.53
2022-12-05T22:01:23.755Z,101952.31
2022-12-05T22:03:53.782Z,101950.53
2022-12-05T22:06:26.191Z,101955.59
2022-12-05T22:08:56.084Z,101964.50
2022-12-05T22:11:26.210Z,101936.59
2022-12-05T22:13:54.684Z,101947.25
2022-12-05T22:16:30.648Z,101953.75
2022-12-05T22:19:00.723Z,101953.00
2022-12-05T22:21:30.417Z,101944.09
2022-12-05T22:23:58.557Z,101945.50
2022-12-05T22:26:27.818Z,101930.75
2022-12-05T22:28:57.671Z,101933.44
2022-12-05T22:31:26.611Z,101902.41
2022-12-05T22:33:54.842Z,101918.00
2022-12-05T22:36:24.401Z,101920.03
2022-12-05T22:38:53.960Z,101920.28
2022-12-05T22:41:23.479Z,101924.28
2022-12-05T22:43:55.905Z,101920.19
2022-12-05T22:46:26.502Z,101914.34
2022-12-05T22:48:55.542Z,101910.19
2022-12-05T22:51:24.485Z,101910.03
2022-12-05T22:53:55.521Z,101908.13
2022-12-05T22:56:25.547Z,101897.75
2022-12-05T22:58:55.515Z,101893.91
2022-12-05T23:01:25.551Z,101897.19
2022-12-05T23:03:57.303Z,101896.91
2022-12-05T23:06:26.540Z,101885.16
2022-12-05T23:08:56.769Z,101873.72
2022-12-05T23:11:26.687Z,101881.59
2022-12-05T23:14:01.293Z,101876.13
2022-12-05T23:16:32.513Z,101868.38
2022-12-05T23:19:02.948Z,101860.38
2022-12-05T23:21:33.828Z,101857.13
2022-12-05T23:24:05.564Z,101873.06
2022-12-05T23:26:35.895Z,101876.50
2022-12-05T23:29:04.545Z,101870.31
2022-12-05T23:31:33.019Z,101867.56
2022-12-05T23:34:03.861Z,101865.78
2022-12-05T23:36:32.830Z,101856.97
2022-12-05T23:39:01.903Z,101860.53
2022-12-05T23:41:32.111Z,101853.28
2022-12-05T23:44:00.452Z,101853.28
2022-12-05T23:46:29.954Z,101844.66
2022-12-05T23:48:59.897Z,101834.41
2022-12-05T23:51:30.291Z,101825.66
2022-12-05T23:54:00.774Z,101821.72
2022-12-05T23:56:32.867Z,101821.38
2022-12-05T23:59:01.966Z,101817.81
